Ingleside, TX (78362)

10:34 PM CST on February 10, 2016 (GMT -0600)
Bluebonnet Meadows | | Change Station
CLOSE
Current Station
Personal Weather Station
Location: Ingleside, TX
Elevation: 12 ft
Nearby Weather Stations

Elev 12 ft 27.89 °N, 97.20 °W | Updated 2 seconds ago

Clear
Clear
60.8 °F
Feels Like 60.8 °F
N
13.8
Wind Variable Wind from SSE
Gusts 13.8 mph

Today
High -- | Low -- °F
--% Chance of Precip.
Yesterday
High -- | Low -- °F
Precip. -- in
Pressure 30.25 in
Visibility 10.0 miles
Clouds Clear
Dew Point 55 °F
Humidity 82%
Rainfall 0.00 in
Snow Depth Not available.
7:10 AM 6:16 PM
Waxing Crescent, 9% visible
METAR KTFP 110415Z AUTO 19010KT 10SM CLR 16/11 A3025 RMK AO2 T01580112
Pressure 30.25 in
Visibility 10.0 miles
Clouds Clear
Dew Point 55 °F
Humidity 82%
Rainfall 0.00 in
Snow Depth Not available.
7:10 AM 6:16 PM
Waxing Crescent, 9% visible
METAR KTFP 110415Z AUTO 19010KT 10SM CLR 16/11 A3025 RMK AO2 T01580112

10-Day Weather Forecast

Almanac

Astronomy

Feb. 10, 2016 Rise Set
Actual Time
Civil Twilight
Nautical Twilight
Astronomical Twilight
Moon
Length of Visible Light
Length of Day
Tomorrow will be .
, % of the Moon is Illuminated

Today's Extremes

State Highs State Lows

Community

WunderPhotos

Upload Photos

1,892,014 photos uploaded!

WunderBlog® & News

Nearby

Air Quality

  Air Quality AQ Index Pollutant
Not available.

Snow Depth

Station Depth Elevation

Earthquake Activity

City Distance Mag. Time & Date
Minimum magnitude displayed is 2.5.

Coastal Water Temperatures

Place Temperature

Stations

Nearby Weather Stations

Station Location Temp. Windchill Dew Point Humidity Wind Precip. Elev Updated Type
                   

Watches & Warnings

There are currently no watches in effect.